createdAt,value
2023-03-06T00:00:31.297Z,22.00
2023-03-06T00:02:58.506Z,19.48
2023-03-06T00:05:25.969Z,19.42
2023-03-06T00:07:52.904Z,18.58
2023-03-06T00:10:22.812Z,18.02
2023-03-06T00:12:52.554Z,17.90
2023-03-06T00:15:19.632Z,20.17
2023-03-06T00:17:46.610Z,19.77
2023-03-06T00:20:14.633Z,16.02
2023-03-06T00:22:41.914Z,15.88
2023-03-06T00:25:14.970Z,16.92
2023-03-06T00:27:42.373Z,19.90
2023-03-06T00:30:12.811Z,17.42
2023-03-06T00:32:43.289Z,17.13
2023-03-06T00:35:10.758Z,17.90
2023-03-06T00:37:37.797Z,18.73
2023-03-06T00:40:06.627Z,16.95
2023-03-06T00:42:33.703Z,19.02
2023-03-06T00:45:00.607Z,23.67
2023-03-06T00:47:27.520Z,19.75
2023-03-06T00:49:54.449Z,18.90
2023-03-06T00:52:21.361Z,20.35
2023-03-06T00:54:48.328Z,19.38
2023-03-06T00:57:15.232Z,16.98
2023-03-06T00:59:42.278Z,18.45
2023-03-06T01:02:09.557Z,17.35
2023-03-06T01:04:36.611Z,18.42
2023-03-06T01:07:04.464Z,19.10
2023-03-06T01:09:31.897Z,18.42
2023-03-06T01:11:58.824Z,18.35
2023-03-06T01:14:26.142Z,18.92
2023-03-06T01:16:53.324Z,19.48
2023-03-06T01:19:20.324Z,17.73
2023-03-06T01:21:47.317Z,18.63
2023-03-06T01:24:14.296Z,18.25
2023-03-06T01:26:41.250Z,20.13
2023-03-06T01:29:08.210Z,17.15
2023-03-06T01:31:35.150Z,20.48
2023-03-06T01:34:02.088Z,19.15
2023-03-06T01:36:29.015Z,18.55
2023-03-06T01:38:56.054Z,20.95
2023-03-06T01:41:23.087Z,19.90
2023-03-06T01:43:50.168Z,17.05
2023-03-06T01:46:26.385Z,17.58
2023-03-06T01:48:57.159Z,17.30
2023-03-06T01:51:28.670Z,20.27
2023-03-06T01:53:56.448Z,18.83
2023-03-06T01:56:24.539Z,20.80
2023-03-06T01:58:52.245Z,18.05
2023-03-06T02:01:19.913Z,19.90
2023-03-06T02:03:49.946Z,18.63
2023-03-06T02:06:19.912Z,17.42
2023-03-06T02:08:48.890Z,17.88
2023-03-06T02:11:21.987Z,20.45
2023-03-06T02:13:50.816Z,20.15
2023-03-06T02:16:21.391Z,19.40
2023-03-06T02:18:58.835Z,18.42
2023-03-06T02:21:31.977Z,19.17
2023-03-06T02:24:17.366Z,20.83
2023-03-06T02:26:46.809Z,18.45
2023-03-06T02:29:18.352Z,21.30
2023-03-06T02:31:45.330Z,18.95
2023-03-06T02:34:15.218Z,21.85
2023-03-06T02:37:00.939Z,20.15
2023-03-06T02:39:33.580Z,20.02
2023-03-06T02:42:00.529Z,19.17
2023-03-06T02:44:31.057Z,21.52
2023-03-06T02:46:58.740Z,21.25
2023-03-06T02:49:26.595Z,17.67
2023-03-06T02:51:53.725Z,17.25
2023-03-06T02:54:20.701Z,20.30
2023-03-06T02:56:48.068Z,21.52
2023-03-06T02:59:15.066Z,16.23
2023-03-06T03:01:42.113Z,20.27
2023-03-06T03:04:09.934Z,19.77
2023-03-06T03:06:37.855Z,20.17
2023-03-06T03:09:07.646Z,19.85
2023-03-06T03:14:02.587Z,18.83
2023-03-06T03:16:30.384Z,18.98
2023-03-06T03:19:00.421Z,19.60
2023-03-06T03:21:27.809Z,16.25
2023-03-06T03:23:55.724Z,16.02
2023-03-06T03:26:24.753Z,19.05
2023-03-06T03:28:58.632Z,17.60
2023-03-06T03:31:26.816Z,20.15
2023-03-06T03:33:53.893Z,16.77
2023-03-06T03:36:23.062Z,18.35
2023-03-06T03:38:50.033Z,19.80
2023-03-06T03:41:16.985Z,17.98
2023-03-06T03:43:44.097Z,18.63
2023-03-06T03:46:11.552Z,18.40
2023-03-06T03:48:39.272Z,14.98
2023-03-06T03:51:12.437Z,19.73
2023-03-06T03:53:44.777Z,21.25
2023-03-06T03:56:14.176Z,17.65
2023-03-06T03:58:50.272Z,18.33
2023-03-06T04:01:17.834Z,18.70
2023-03-06T04:03:45.201Z,16.63
2023-03-06T04:06:13.821Z,19.48
2023-03-06T04:08:46.829Z,20.10
2023-03-06T04:11:13.865Z,18.75
2023-03-06T04:13:40.772Z,18.15
2023-03-06T04:16:08.754Z,18.35
2023-03-06T04:18:37.762Z,18.90
2023-03-06T04:21:06.309Z,19.08
2023-03-06T04:23:33.860Z,19.70
2023-03-06T04:26:01.049Z,17.95
2023-03-06T04:28:28.667Z,25.38
2023-03-06T04:30:56.400Z,37.40
2023-03-06T04:33:23.689Z,38.20
2023-03-06T04:35:50.761Z,37.38
2023-03-06T04:38:23.269Z,27.33
2023-03-06T04:40:50.371Z,20.98
2023-03-06T04:43:17.633Z,18.10
2023-03-06T04:45:44.880Z,24.58
2023-03-06T04:48:18.359Z,27.17
2023-03-06T04:50:45.840Z,25.15
2023-03-06T04:53:14.575Z,26.88
2023-03-06T04:55:41.524Z,24.70
2023-03-06T04:58:08.523Z,22.25
2023-03-06T05:00:35.426Z,22.63
2023-03-06T05:03:02.405Z,19.50
2023-03-06T05:05:29.677Z,25.55
2023-03-06T05:07:56.935Z,24.50
2023-03-06T05:10:24.185Z,26.50
2023-03-06T05:12:51.224Z,20.77
2023-03-06T05:15:18.478Z,23.42
2023-03-06T05:17:46.545Z,22.90
2023-03-06T05:20:15.217Z,22.10
2023-03-06T05:22:42.471Z,21.73
2023-03-06T05:25:10.998Z,26.85
2023-03-06T05:27:38.974Z,19.63
2023-03-06T05:30:06.882Z,24.40
2023-03-06T05:32:35.573Z,21.15
2023-03-06T05:35:03.046Z,19.98
2023-03-06T05:37:30.216Z,19.55
2023-03-06T05:39:57.420Z,21.90
2023-03-06T05:42:26.378Z,19.60
2023-03-06T05:44:54.520Z,20.63
2023-03-06T05:47:21.589Z,24.70
2023-03-06T05:49:48.686Z,20.05
2023-03-06T05:52:17.525Z,18.50
2023-03-06T05:54:44.684Z,21.65
2023-03-06T05:57:11.645Z,25.60
2023-03-06T05:59:38.557Z,22.38
2023-03-06T06:02:05.675Z,24.40
2023-03-06T06:04:33.025Z,22.90
2023-03-06T06:07:01.119Z,24.95
2023-03-06T06:09:28.516Z,18.30
2023-03-06T06:11:58.251Z,20.48
2023-03-06T06:14:25.352Z,23.13
2023-03-06T06:16:52.329Z,24.20
2023-03-06T06:19:20.343Z,29.30
2023-03-06T06:21:50.034Z,34.85
2023-03-06T06:24:19.364Z,35.77
2023-03-06T06:26:47.308Z,28.65
2023-03-06T06:29:14.192Z,28.30
2023-03-06T06:31:41.254Z,25.02
2023-03-06T06:34:09.826Z,28.95
2023-03-06T06:36:37.812Z,24.60
2023-03-06T06:39:06.203Z,20.58
2023-03-06T06:41:51.077Z,21.85
2023-03-06T06:44:20.865Z,30.02
2023-03-06T06:47:21.442Z,25.95
2023-03-06T06:49:37.176Z,25.27
2023-03-06T06:52:06.024Z,26.77
2023-03-06T06:54:34.641Z,39.78
2023-03-06T06:57:01.675Z,43.58
2023-03-06T06:59:28.587Z,43.67
2023-03-06T07:01:55.447Z,34.70
2023-03-06T07:04:22.727Z,23.40
2023-03-06T07:06:49.572Z,32.15
2023-03-06T07:09:16.548Z,33.72
2023-03-06T07:11:44.657Z,44.15
2023-03-06T07:14:11.590Z,47.00
2023-03-06T07:16:38.907Z,66.43
2023-03-06T07:19:06.918Z,49.55
2023-03-06T07:21:36.444Z,38.80
2023-03-06T07:24:03.443Z,26.35
2023-03-06T07:26:32.716Z,21.90
2023-03-06T07:29:01.032Z,25.50
2023-03-06T07:31:28.613Z,27.85
2023-03-06T07:33:58.619Z,24.10
2023-03-06T07:36:25.523Z,24.10
2023-03-06T07:38:52.437Z,23.60
2023-03-06T07:41:21.958Z,23.80
2023-03-06T07:43:50.264Z,23.85
2023-03-06T07:46:17.605Z,23.73
2023-03-06T07:48:44.934Z,22.65
2023-03-06T07:51:18.020Z,22.55
2023-03-06T07:53:45.434Z,24.63
2023-03-06T07:56:13.247Z,20.08
2023-03-06T07:58:42.814Z,21.95
2023-03-06T08:01:13.408Z,24.90
2023-03-06T08:06:09.642Z,27.98
2023-03-06T08:08:39.450Z,23.63
2023-03-06T08:11:08.022Z,27.15
2023-03-06T08:13:35.153Z,34.00
2023-03-06T08:16:02.680Z,24.50
2023-03-06T08:18:30.023Z,22.27
2023-03-06T08:21:08.168Z,19.42
2023-03-06T08:23:35.880Z,20.08
2023-03-06T08:26:08.433Z,21.45
2023-03-06T08:28:35.489Z,26.15
2023-03-06T08:31:25.992Z,19.92
2023-03-06T08:33:55.938Z,22.05
2023-03-06T08:36:23.946Z,20.88
2023-03-06T08:38:51.200Z,20.10
2023-03-06T08:41:20.227Z,21.38
2023-03-06T08:43:47.583Z,27.13
2023-03-06T08:46:14.781Z,19.80
2023-03-06T08:48:42.531Z,22.67
2023-03-06T08:51:09.879Z,29.52
2023-03-06T08:53:43.256Z,18.52
2023-03-06T08:56:23.072Z,27.65
2023-03-06T08:58:51.102Z,24.30
2023-03-06T09:01:21.208Z,27.83
2023-03-06T09:03:48.723Z,25.75
2023-03-06T09:06:16.344Z,45.17
2023-03-06T09:08:44.560Z,33.67
2023-03-06T09:11:13.387Z,30.23
2023-03-06T09:13:41.191Z,25.67
2023-03-06T09:16:09.459Z,29.90
2023-03-06T09:18:37.522Z,29.65
2023-03-06T09:21:05.550Z,29.42
2023-03-06T09:23:33.004Z,28.08
2023-03-06T09:26:01.024Z,49.15
2023-03-06T09:28:28.122Z,26.40
2023-03-06T09:30:55.754Z,24.38
2023-03-06T09:33:23.201Z,28.23
2023-03-06T09:35:55.684Z,28.25
2023-03-06T09:38:27.558Z,24.58
2023-03-06T09:41:15.113Z,22.40
2023-03-06T09:43:50.799Z,24.15
2023-03-06T09:46:46.141Z,21.23
2023-03-06T09:49:33.270Z,33.75
2023-03-06T09:52:06.929Z,26.70
2023-03-06T09:54:59.072Z,22.60
2023-03-06T09:57:30.825Z,26.00
2023-03-06T10:00:04.583Z,23.17
2023-03-06T10:02:57.001Z,23.25
2023-03-06T10:05:29.162Z,22.33
2023-03-06T10:08:02.220Z,24.02
2023-03-06T10:10:50.989Z,20.30
2023-03-06T10:13:30.159Z,22.10
2023-03-06T10:16:30.315Z,25.50
2023-03-06T10:19:03.576Z,24.05
2023-03-06T10:21:38.981Z,27.40
2023-03-06T10:24:40.063Z,28.10
2023-03-06T10:27:21.783Z,22.05
2023-03-06T10:30:07.469Z,22.80
2023-03-06T10:32:49.117Z,22.48
2023-03-06T10:35:20.492Z,23.65
2023-03-06T10:37:48.525Z,22.67
2023-03-06T10:40:21.484Z,23.45
2023-03-06T10:42:52.075Z,23.38
2023-03-06T10:45:23.273Z,20.50
2023-03-06T10:47:50.250Z,25.40
2023-03-06T10:50:27.175Z,28.83
2023-03-06T10:53:04.494Z,33.10
2023-03-06T10:55:36.122Z,22.48
2023-03-06T10:58:23.370Z,19.70
2023-03-06T11:01:06.894Z,25.83
2023-03-06T11:03:35.973Z,19.65
2023-03-06T11:06:13.307Z,24.25
2023-03-06T11:08:42.549Z,20.80
2023-03-06T11:11:36.404Z,18.75
2023-03-06T11:14:15.791Z,21.92
2023-03-06T11:16:53.379Z,24.33
2023-03-06T11:19:26.573Z,17.45
2023-03-06T11:22:06.147Z,16.95
2023-03-06T11:24:39.508Z,20.80
2023-03-06T11:27:27.364Z,19.15
2023-03-06T11:29:55.724Z,17.88
2023-03-06T11:32:54.053Z,17.20
2023-03-06T11:36:07.059Z,22.17
2023-03-06T11:38:53.926Z,17.63
2023-03-06T11:41:56.991Z,18.75
2023-03-06T11:44:24.666Z,16.58
2023-03-06T11:47:02.870Z,20.58
2023-03-06T11:49:35.087Z,35.85
2023-03-06T11:52:10.820Z,21.08
2023-03-06T11:54:37.695Z,24.63
2023-03-06T11:57:17.918Z,17.33
2023-03-06T12:00:15.515Z,15.98
2023-03-06T12:02:54.489Z,18.33
2023-03-06T12:05:39.046Z,16.60
2023-03-06T12:08:24.474Z,23.52
2023-03-06T12:11:05.650Z,19.17
2023-03-06T12:13:39.213Z,19.88
2023-03-06T12:16:27.404Z,19.15
2023-03-06T12:19:22.593Z,22.42
2023-03-06T12:22:11.898Z,29.70
2023-03-06T12:25:07.745Z,17.17
2023-03-06T12:27:53.436Z,15.70
2023-03-06T12:30:35.413Z,16.45
2023-03-06T12:33:26.363Z,17.08
2023-03-06T12:36:26.314Z,15.52
2023-03-06T12:39:19.648Z,17.20
2023-03-06T12:41:56.373Z,18.27
2023-03-06T12:44:29.180Z,16.80
2023-03-06T12:47:05.038Z,17.80
2023-03-06T12:49:38.906Z,16.40
2023-03-06T12:52:08.910Z,15.35
2023-03-06T12:54:41.719Z,21.40
2023-03-06T12:57:09.645Z,19.00
2023-03-06T12:59:37.776Z,18.38
2023-03-06T13:02:29.589Z,18.83
2023-03-06T13:05:00.423Z,20.23
2023-03-06T13:07:33.136Z,18.17
2023-03-06T13:10:13.987Z,16.60
2023-03-06T13:13:01.203Z,18.88
2023-03-06T13:15:33.968Z,17.85
2023-03-06T13:18:01.586Z,24.50
2023-03-06T13:20:48.847Z,16.80
2023-03-06T13:23:37.406Z,18.48
2023-03-06T13:26:09.394Z,15.25
2023-03-06T13:28:50.585Z,19.25
2023-03-06T13:31:29.391Z,16.08
2023-03-06T13:34:01.906Z,16.63
2023-03-06T13:36:31.033Z,20.88
2023-03-06T13:39:08.624Z,22.70
2023-03-06T13:41:37.784Z,23.25
2023-03-06T13:44:28.387Z,24.65
2023-03-06T13:52:28.163Z,19.15
2023-03-06T13:55:22.375Z,34.92
2023-03-06T13:58:02.927Z,26.00
2023-03-06T14:03:35.159Z,32.20
2023-03-06T14:06:02.365Z,23.10
2023-03-06T14:08:32.250Z,22.33
2023-03-06T14:11:05.573Z,21.60
2023-03-06T14:13:48.492Z,15.00
2023-03-06T14:16:22.422Z,32.17
2023-03-06T14:18:55.272Z,17.33
2023-03-06T14:21:42.240Z,15.43
2023-03-06T14:24:39.550Z,18.75
2023-03-06T14:27:07.121Z,14.75
2023-03-06T14:29:34.162Z,13.20
2023-03-06T14:32:02.134Z,15.60
2023-03-06T14:34:31.924Z,17.35
2023-03-06T14:37:02.619Z,12.80
2023-03-06T14:39:42.097Z,14.77
2023-03-06T14:42:09.253Z,15.63
2023-03-06T14:44:36.374Z,12.23
2023-03-06T14:47:34.228Z,15.23
2023-03-06T14:50:23.538Z,13.02
2023-03-06T14:53:12.917Z,13.35
2023-03-06T14:56:00.203Z,14.35
2023-03-06T14:58:38.449Z,16.33
2023-03-06T15:01:11.471Z,13.95
2023-03-06T15:03:58.066Z,15.05
2023-03-06T15:06:31.351Z,12.93
2023-03-06T15:09:06.481Z,17.77
2023-03-06T15:11:58.357Z,16.58
2023-03-06T15:14:47.956Z,14.65
2023-03-06T15:17:18.212Z,12.45
2023-03-06T15:19:51.046Z,16.92
2023-03-06T15:22:25.607Z,23.45
2023-03-06T15:24:53.358Z,16.88
2023-03-06T15:27:30.386Z,20.70
2023-03-06T15:30:25.010Z,13.45
2023-03-06T15:32:52.472Z,22.13
2023-03-06T15:35:37.908Z,16.70
2023-03-06T15:38:34.626Z,14.52
2023-03-06T15:41:02.889Z,15.90
2023-03-06T15:43:35.439Z,20.58
2023-03-06T15:46:04.289Z,11.10
2023-03-06T15:48:31.345Z,13.05
2023-03-06T15:50:58.336Z,12.00
2023-03-06T15:53:25.505Z,11.23
2023-03-06T15:55:53.220Z,13.13
2023-03-06T15:58:24.871Z,8.77
2023-03-06T16:00:52.125Z,11.65
2023-03-06T16:03:21.871Z,13.07
2023-03-06T16:05:51.004Z,11.00
2023-03-06T16:08:17.930Z,8.80
2023-03-06T16:10:46.900Z,11.63
2023-03-06T16:13:32.446Z,10.88
2023-03-06T16:15:59.364Z,10.48
2023-03-06T16:18:26.292Z,9.07
2023-03-06T16:20:53.265Z,9.80
2023-03-06T16:23:20.277Z,10.82
2023-03-06T16:25:49.000Z,12.95
2023-03-06T16:28:16.790Z,11.45
2023-03-06T16:30:44.793Z,10.18
2023-03-06T16:33:13.433Z,14.20
2023-03-06T16:35:41.399Z,14.68
2023-03-06T16:38:10.129Z,12.48
2023-03-06T16:40:38.493Z,11.73
2023-03-06T16:43:05.879Z,13.73
2023-03-06T16:45:37.172Z,10.60
2023-03-06T16:48:07.636Z,12.05
2023-03-06T16:50:39.038Z,14.15
2023-03-06T16:53:06.777Z,12.80
2023-03-06T16:55:34.177Z,10.60
2023-03-06T16:58:01.531Z,17.88
2023-03-06T17:00:33.382Z,14.25
2023-03-06T17:03:04.383Z,13.73
2023-03-06T17:05:34.356Z,15.23
2023-03-06T17:08:02.154Z,15.35
2023-03-06T17:10:50.514Z,17.90
2023-03-06T17:13:17.529Z,22.23
2023-03-06T17:15:56.940Z,16.70
2023-03-06T17:18:25.190Z,16.55
2023-03-06T17:20:53.168Z,22.58
2023-03-06T17:23:24.667Z,18.08
2023-03-06T17:26:11.435Z,16.80
2023-03-06T17:28:39.264Z,19.10
2023-03-06T17:31:14.248Z,22.77
2023-03-06T17:33:41.498Z,27.52
2023-03-06T17:36:09.887Z,24.80
2023-03-06T17:38:37.008Z,18.98
2023-03-06T17:41:09.308Z,15.52
2023-03-06T17:43:37.752Z,16.52
2023-03-06T17:46:07.213Z,16.17
2023-03-06T17:48:34.745Z,18.48
2023-03-06T17:51:02.249Z,17.08
2023-03-06T17:53:29.519Z,20.25
2023-03-06T17:55:59.860Z,20.75
2023-03-06T17:58:27.928Z,15.18
2023-03-06T18:00:54.957Z,16.80
2023-03-06T18:03:21.961Z,21.20
2023-03-06T18:06:02.332Z,12.05
2023-03-06T18:08:32.323Z,14.50
2023-03-06T18:11:04.249Z,12.95
2023-03-06T18:13:35.248Z,14.98
2023-03-06T18:16:02.455Z,14.43
2023-03-06T18:18:30.469Z,16.58
2023-03-06T18:20:57.553Z,12.43
2023-03-06T18:23:24.908Z,12.70
2023-03-06T18:25:52.756Z,14.52
2023-03-06T18:28:19.744Z,10.40
2023-03-06T18:30:46.757Z,10.25
2023-03-06T18:33:13.763Z,23.95
2023-03-06T18:35:44.053Z,11.55
2023-03-06T18:38:10.997Z,14.98
2023-03-06T18:40:37.990Z,13.20
2023-03-06T18:43:04.860Z,11.57
2023-03-06T18:45:32.251Z,12.27
2023-03-06T18:47:59.692Z,13.57
2023-03-06T18:50:26.902Z,11.88
2023-03-06T18:52:53.895Z,11.95
2023-03-06T18:55:21.026Z,12.48
2023-03-06T18:57:47.994Z,15.15
2023-03-06T19:00:15.576Z,14.05
2023-03-06T19:02:42.585Z,15.38
2023-03-06T19:05:13.990Z,12.15
2023-03-06T19:07:41.070Z,13.88
2023-03-06T19:10:08.597Z,15.13
2023-03-06T19:12:35.692Z,18.30
2023-03-06T19:15:04.302Z,13.88
2023-03-06T19:17:31.746Z,18.48
2023-03-06T19:19:58.677Z,22.35
2023-03-06T19:22:25.742Z,16.92
2023-03-06T19:24:52.663Z,15.48
2023-03-06T19:27:19.646Z,12.88
2023-03-06T19:29:46.716Z,12.48
2023-03-06T19:32:13.946Z,12.40
2023-03-06T19:34:42.686Z,16.23
2023-03-06T19:37:09.977Z,15.15
2023-03-06T19:39:38.715Z,15.65
2023-03-06T19:42:05.721Z,17.95
2023-03-06T19:44:32.769Z,13.23
2023-03-06T19:47:02.498Z,16.35
2023-03-06T19:49:29.482Z,14.10
2023-03-06T19:51:56.706Z,12.63
2023-03-06T19:54:24.828Z,17.50
2023-03-06T19:56:51.996Z,14.13
2023-03-06T19:59:22.191Z,14.85
2023-03-06T20:01:49.310Z,19.95
2023-03-06T20:04:17.120Z,18.88
2023-03-06T20:06:46.700Z,14.73
2023-03-06T20:09:13.668Z,17.27
2023-03-06T20:11:41.525Z,20.05
2023-03-06T20:14:09.282Z,19.58
2023-03-06T20:16:36.387Z,17.05
2023-03-06T20:19:03.663Z,18.02
2023-03-06T20:21:33.656Z,17.45
2023-03-06T20:24:00.625Z,13.93
2023-03-06T20:26:29.174Z,19.40
2023-03-06T20:28:56.826Z,17.63
2023-03-06T20:31:27.013Z,17.05
2023-03-06T20:33:56.983Z,14.63
2023-03-06T20:36:28.115Z,17.45
2023-03-06T20:38:56.486Z,17.75
2023-03-06T20:41:26.294Z,16.50
2023-03-06T20:43:54.264Z,23.60
2023-03-06T20:46:22.804Z,17.63
2023-03-06T20:48:51.664Z,19.25
2023-03-06T20:51:24.446Z,18.10
2023-03-06T20:53:53.414Z,19.00
2023-03-06T20:56:23.704Z,15.80
2023-03-06T20:58:51.072Z,22.23
2023-03-06T21:01:24.327Z,17.40
2023-03-06T21:03:52.205Z,16.95
2023-03-06T21:06:19.961Z,17.70
2023-03-06T21:08:47.556Z,18.65
2023-03-06T21:11:15.213Z,20.00
2023-03-06T21:13:42.447Z,20.77
2023-03-06T21:16:14.872Z,18.00
2023-03-06T21:18:42.194Z,20.65
2023-03-06T21:21:12.818Z,20.63
2023-03-06T21:26:07.348Z,19.90
2023-03-06T21:28:34.546Z,23.38
2023-03-06T21:31:02.215Z,20.80
2023-03-06T21:33:29.390Z,16.98
2023-03-06T21:35:56.432Z,24.17
2023-03-06T21:38:23.493Z,21.52
2023-03-06T21:40:50.802Z,20.48
2023-03-06T21:43:17.873Z,22.70
2023-03-06T21:45:49.373Z,22.10
2023-03-06T21:48:16.436Z,24.05
2023-03-06T21:50:43.395Z,20.83
2023-03-06T21:53:10.551Z,17.00
2023-03-06T21:55:41.027Z,18.02
2023-03-06T22:00:36.721Z,13.85
2023-03-06T22:03:04.784Z,14.73
2023-03-06T22:05:34.451Z,14.82
2023-03-06T22:08:01.458Z,16.88
2023-03-06T22:10:28.432Z,16.05
2023-03-06T22:12:55.345Z,18.02
2023-03-06T22:15:22.529Z,18.08
2023-03-06T22:17:49.635Z,15.23
2023-03-06T22:20:16.777Z,14.48
2023-03-06T22:22:43.999Z,16.42
2023-03-06T22:25:12.044Z,15.30
2023-03-06T22:27:39.290Z,16.67
2023-03-06T22:30:06.828Z,16.42
2023-03-06T22:32:34.021Z,15.90
2023-03-06T22:35:00.949Z,16.52
2023-03-06T22:37:27.850Z,14.70
2023-03-06T22:39:54.725Z,18.23
2023-03-06T22:42:21.618Z,15.88
2023-03-06T22:44:48.513Z,13.98
2023-03-06T22:47:15.406Z,15.80
2023-03-06T22:49:45.208Z,17.65
2023-03-06T22:52:15.140Z,17.10
2023-03-06T22:54:42.233Z,16.38
2023-03-06T22:57:09.152Z,15.65
2023-03-06T22:59:36.058Z,17.25
2023-03-06T23:02:03.779Z,15.48
2023-03-06T23:04:30.787Z,14.75
2023-03-06T23:06:57.701Z,12.93
2023-03-06T23:09:25.630Z,12.50
2023-03-06T23:12:11.779Z,12.63
2023-03-06T23:14:57.623Z,13.88
2023-03-06T23:17:43.436Z,13.45
2023-03-06T23:20:29.162Z,14.48
2023-03-06T23:23:14.876Z,12.13
2023-03-06T23:25:42.201Z,13.02
2023-03-06T23:28:09.149Z,14.52
2023-03-06T23:30:38.786Z,14.40
2023-03-06T23:33:05.776Z,14.93
2023-03-06T23:35:33.966Z,15.77
2023-03-06T23:38:02.493Z,13.50
2023-03-06T23:40:31.666Z,12.77
2023-03-06T23:42:58.583Z,15.38
2023-03-06T23:45:26.491Z,15.95
2023-03-06T23:47:53.355Z,15.05
2023-03-06T23:50:20.576Z,14.88
2023-03-06T23:52:47.459Z,14.73
2023-03-06T23:55:14.393Z,13.60
2023-03-06T23:57:42.360Z,16.08
